sensor_id;sensor_type;location;lat;lon;timestamp;P1;durP1;ratioP1;P2;durP2;ratioP2
14116;SDS011;7137;51.436;6.544;2023-03-26T00:02:50;22.57;;;4.87;;
14116;SDS011;7137;51.436;6.544;2023-03-26T00:05:59;14.67;;;4.00;;
14116;SDS011;7137;51.436;6.544;2023-03-26T00:09:03;22.80;;;4.40;;
14116;SDS011;7137;51.436;6.544;2023-03-26T00:12:06;16.47;;;3.87;;
14116;SDS011;7137;51.436;6.544;2023-03-26T00:15:09;18.97;;;4.43;;
14116;SDS011;7137;51.436;6.544;2023-03-26T00:18:12;16.33;;;3.90;;
14116;SDS011;7137;51.436;6.544;2023-03-26T00:21:15;23.33;;;4.50;;
14116;SDS011;7137;51.436;6.544;2023-03-26T00:24:20;20.43;;;4.33;;
14116;SDS011;7137;51.436;6.544;2023-03-26T00:27:28;15.17;;;3.93;;
14116;SDS011;7137;51.436;6.544;2023-03-26T00:30:31;18.13;;;4.40;;
14116;SDS011;7137;51.436;6.544;2023-03-26T00:33:36;21.27;;;4.40;;
14116;SDS011;7137;51.436;6.544;2023-03-26T00:36:39;16.73;;;3.50;;
14116;SDS011;7137;51.436;6.544;2023-03-26T00:39:41;18.50;;;4.17;;
14116;SDS011;7137;51.436;6.544;2023-03-26T00:42:43;19.73;;;4.20;;
14116;SDS011;7137;51.436;6.544;2023-03-26T00:45:45;16.37;;;3.90;;
14116;SDS011;7137;51.436;6.544;2023-03-26T00:48:49;19.97;;;3.80;;
14116;SDS011;7137;51.436;6.544;2023-03-26T00:51:50;26.20;;;5.37;;
14116;SDS011;7137;51.436;6.544;2023-03-26T00:54:53;24.57;;;4.17;;
14116;SDS011;7137;51.436;6.544;2023-03-26T00:57:55;22.53;;;3.80;;
14116;SDS011;7137;51.436;6.544;2023-03-26T01:00:57;26.37;;;4.50;;
14116;SDS011;7137;51.436;6.544;2023-03-26T01:07:26;17.47;;;4.33;;
14116;SDS011;7137;51.436;6.544;2023-03-26T01:10:28;22.57;;;4.23;;
14116;SDS011;7137;51.436;6.544;2023-03-26T01:13:37;20.80;;;4.30;;
14116;SDS011;7137;51.436;6.544;2023-03-26T01:16:43;20.27;;;4.23;;
14116;SDS011;7137;51.436;6.544;2023-03-26T01:19:50;21.70;;;3.97;;
14116;SDS011;7137;51.436;6.544;2023-03-26T01:22:58;20.63;;;4.13;;
14116;SDS011;7137;51.436;6.544;2023-03-26T01:26:07;20.77;;;3.87;;
14116;SDS011;7137;51.436;6.544;2023-03-26T01:29:26;15.50;;;3.90;;
14116;SDS011;7137;51.436;6.544;2023-03-26T01:32:36;18.07;;;3.97;;
14116;SDS011;7137;51.436;6.544;2023-03-26T01:35:48;18.60;;;3.57;;
14116;SDS011;7137;51.436;6.544;2023-03-26T01:38:56;17.93;;;3.80;;
14116;SDS011;7137;51.436;6.544;2023-03-26T01:42:04;14.50;;;3.30;;
14116;SDS011;7137;51.436;6.544;2023-03-26T01:45:10;14.50;;;2.90;;
14116;SDS011;7137;51.436;6.544;2023-03-26T01:48:16;12.57;;;3.00;;
14116;SDS011;7137;51.436;6.544;2023-03-26T01:51:25;14.37;;;3.50;;
14116;SDS011;7137;51.436;6.544;2023-03-26T01:54:28;10.90;;;2.90;;
14116;SDS011;7137;51.436;6.544;2023-03-26T01:57:35;14.30;;;3.20;;
14116;SDS011;7137;51.436;6.544;2023-03-26T02:00:43;14.40;;;3.17;;
14116;SDS011;7137;51.436;6.544;2023-03-26T02:03:49;12.00;;;3.03;;
14116;SDS011;7137;51.436;6.544;2023-03-26T02:06:58;12.73;;;3.00;;
14116;SDS011;7137;51.436;6.544;2023-03-26T02:10:06;15.50;;;3.63;;
14116;SDS011;7137;51.436;6.544;2023-03-26T02:13:14;14.10;;;3.47;;
14116;SDS011;7137;51.436;6.544;2023-03-26T02:16:16;18.03;;;3.40;;
14116;SDS011;7137;51.436;6.544;2023-03-26T02:19:20;16.47;;;3.43;;
14116;SDS011;7137;51.436;6.544;2023-03-26T02:22:24;15.33;;;3.40;;
14116;SDS011;7137;51.436;6.544;2023-03-26T02:25:28;13.13;;;3.57;;
14116;SDS011;7137;51.436;6.544;2023-03-26T02:28:31;16.90;;;3.30;;
14116;SDS011;7137;51.436;6.544;2023-03-26T02:31:33;14.60;;;3.27;;
14116;SDS011;7137;51.436;6.544;2023-03-26T02:34:35;14.53;;;3.37;;
14116;SDS011;7137;51.436;6.544;2023-03-26T02:37:37;16.53;;;3.30;;
14116;SDS011;7137;51.436;6.544;2023-03-26T02:40:39;14.07;;;2.73;;
14116;SDS011;7137;51.436;6.544;2023-03-26T02:43:42;18.60;;;3.73;;
14116;SDS011;7137;51.436;6.544;2023-03-26T02:46:44;15.20;;;3.90;;
14116;SDS011;7137;51.436;6.544;2023-03-26T02:49:46;16.80;;;4.37;;
14116;SDS011;7137;51.436;6.544;2023-03-26T02:52:47;15.67;;;3.60;;
14116;SDS011;7137;51.436;6.544;2023-03-26T02:55:49;15.67;;;3.60;;
14116;SDS011;7137;51.436;6.544;2023-03-26T02:58:52;15.27;;;3.60;;
14116;SDS011;7137;51.436;6.544;2023-03-26T03:01:54;14.10;;;3.37;;
14116;SDS011;7137;51.436;6.544;2023-03-26T03:04:55;12.73;;;3.33;;
14116;SDS011;7137;51.436;6.544;2023-03-26T03:08:00;15.80;;;3.47;;
14116;SDS011;7137;51.436;6.544;2023-03-26T03:11:05;11.73;;;2.90;;
14116;SDS011;7137;51.436;6.544;2023-03-26T03:14:10;14.33;;;3.57;;
14116;SDS011;7137;51.436;6.544;2023-03-26T03:17:11;16.23;;;3.80;;
14116;SDS011;7137;51.436;6.544;2023-03-26T03:20:13;11.47;;;3.40;;
14116;SDS011;7137;51.436;6.544;2023-03-26T03:23:15;15.40;;;3.77;;
14116;SDS011;7137;51.436;6.544;2023-03-26T03:26:18;16.73;;;3.70;;
14116;SDS011;7137;51.436;6.544;2023-03-26T03:29:22;15.57;;;3.73;;
14116;SDS011;7137;51.436;6.544;2023-03-26T03:32:24;13.70;;;3.60;;
14116;SDS011;7137;51.436;6.544;2023-03-26T03:35:26;15.47;;;3.00;;
14116;SDS011;7137;51.436;6.544;2023-03-26T03:38:28;14.33;;;3.40;;
14116;SDS011;7137;51.436;6.544;2023-03-26T03:41:30;14.60;;;3.70;;
14116;SDS011;7137;51.436;6.544;2023-03-26T03:44:33;20.57;;;3.90;;
14116;SDS011;7137;51.436;6.544;2023-03-26T03:47:34;11.33;;;3.43;;
14116;SDS011;7137;51.436;6.544;2023-03-26T03:50:36;20.30;;;4.23;;
14116;SDS011;7137;51.436;6.544;2023-03-26T03:53:38;12.13;;;3.40;;
14116;SDS011;7137;51.436;6.544;2023-03-26T03:56:40;15.80;;;3.67;;
14116;SDS011;7137;51.436;6.544;2023-03-26T04:03:34;15.13;;;3.37;;
14116;SDS011;7137;51.436;6.544;2023-03-26T04:06:37;16.13;;;3.50;;
14116;SDS011;7137;51.436;6.544;2023-03-26T04:09:38;13.67;;;3.30;;
14116;SDS011;7137;51.436;6.544;2023-03-26T04:12:41;16.70;;;3.27;;
14116;SDS011;7137;51.436;6.544;2023-03-26T04:15:43;10.13;;;3.00;;
14116;SDS011;7137;51.436;6.544;2023-03-26T04:18:45;11.67;;;3.23;;
14116;SDS011;7137;51.436;6.544;2023-03-26T04:21:47;17.67;;;4.13;;
14116;SDS011;7137;51.436;6.544;2023-03-26T04:24:49;14.90;;;3.53;;
14116;SDS011;7137;51.436;6.544;2023-03-26T04:27:53;13.47;;;3.17;;
14116;SDS011;7137;51.436;6.544;2023-03-26T04:30:57;15.57;;;3.67;;
14116;SDS011;7137;51.436;6.544;2023-03-26T04:34:04;11.97;;;3.40;;
14116;SDS011;7137;51.436;6.544;2023-03-26T04:37:14;9.17;;;3.20;;
14116;SDS011;7137;51.436;6.544;2023-03-26T04:40:19;10.23;;;3.30;;
14116;SDS011;7137;51.436;6.544;2023-03-26T04:43:21;12.83;;;3.00;;
14116;SDS011;7137;51.436;6.544;2023-03-26T04:46:23;13.87;;;3.10;;
14116;SDS011;7137;51.436;6.544;2023-03-26T04:49:26;11.80;;;3.13;;
14116;SDS011;7137;51.436;6.544;2023-03-26T04:52:27;12.93;;;3.13;;
14116;SDS011;7137;51.436;6.544;2023-03-26T04:55:30;8.83;;;2.83;;
14116;SDS011;7137;51.436;6.544;2023-03-26T04:58:36;11.80;;;3.43;;
14116;SDS011;7137;51.436;6.544;2023-03-26T05:01:39;13.23;;;3.30;;
14116;SDS011;7137;51.436;6.544;2023-03-26T05:04:42;12.10;;;3.00;;
14116;SDS011;7137;51.436;6.544;2023-03-26T05:07:44;12.83;;;3.17;;
14116;SDS011;7137;51.436;6.544;2023-03-26T05:10:46;10.90;;;3.17;;
14116;SDS011;7137;51.436;6.544;2023-03-26T05:13:47;11.60;;;3.27;;
14116;SDS011;7137;51.436;6.544;2023-03-26T05:16:49;11.37;;;2.97;;
14116;SDS011;7137;51.436;6.544;2023-03-26T05:19:53;10.07;;;2.90;;
14116;SDS011;7137;51.436;6.544;2023-03-26T05:22:55;12.03;;;3.07;;
14116;SDS011;7137;51.436;6.544;2023-03-26T05:25:56;10.70;;;2.83;;
14116;SDS011;7137;51.436;6.544;2023-03-26T05:28:58;8.90;;;2.60;;
14116;SDS011;7137;51.436;6.544;2023-03-26T05:32:02;11.30;;;2.50;;
14116;SDS011;7137;51.436;6.544;2023-03-26T05:35:05;12.73;;;2.73;;
14116;SDS011;7137;51.436;6.544;2023-03-26T05:38:07;13.23;;;2.97;;
14116;SDS011;7137;51.436;6.544;2023-03-26T05:41:09;13.07;;;3.23;;
14116;SDS011;7137;51.436;6.544;2023-03-26T05:44:10;11.77;;;2.77;;
14116;SDS011;7137;51.436;6.544;2023-03-26T05:47:12;10.80;;;2.60;;
14116;SDS011;7137;51.436;6.544;2023-03-26T05:50:14;13.20;;;3.17;;
14116;SDS011;7137;51.436;6.544;2023-03-26T05:53:16;11.13;;;2.80;;
14116;SDS011;7137;51.436;6.544;2023-03-26T05:56:18;12.80;;;2.60;;
14116;SDS011;7137;51.436;6.544;2023-03-26T05:59:19;10.33;;;2.73;;
14116;SDS011;7137;51.436;6.544;2023-03-26T06:02:22;11.33;;;2.67;;
14116;SDS011;7137;51.436;6.544;2023-03-26T06:05:25;11.53;;;2.60;;
14116;SDS011;7137;51.436;6.544;2023-03-26T06:08:31;12.57;;;2.70;;
14116;SDS011;7137;51.436;6.544;2023-03-26T06:11:33;11.13;;;2.83;;
14116;SDS011;7137;51.436;6.544;2023-03-26T06:14:35;10.73;;;3.10;;
14116;SDS011;7137;51.436;6.544;2023-03-26T06:17:37;11.40;;;2.63;;
14116;SDS011;7137;51.436;6.544;2023-03-26T06:20:41;11.87;;;2.60;;
14116;SDS011;7137;51.436;6.544;2023-03-26T06:23:42;11.00;;;2.57;;
14116;SDS011;7137;51.436;6.544;2023-03-26T06:26:44;9.93;;;2.93;;
14116;SDS011;7137;51.436;6.544;2023-03-26T06:29:46;10.40;;;2.53;;
14116;SDS011;7137;51.436;6.544;2023-03-26T06:32:49;12.37;;;3.03;;
14116;SDS011;7137;51.436;6.544;2023-03-26T06:35:52;13.43;;;3.10;;
14116;SDS011;7137;51.436;6.544;2023-03-26T06:38:53;13.43;;;3.10;;
14116;SDS011;7137;51.436;6.544;2023-03-26T06:41:55;9.47;;;2.40;;
14116;SDS011;7137;51.436;6.544;2023-03-26T06:44:56;13.47;;;3.07;;
14116;SDS011;7137;51.436;6.544;2023-03-26T06:47:58;11.63;;;3.00;;
14116;SDS011;7137;51.436;6.544;2023-03-26T06:51:01;13.27;;;3.10;;
14116;SDS011;7137;51.436;6.544;2023-03-26T06:54:03;9.97;;;2.73;;
14116;SDS011;7137;51.436;6.544;2023-03-26T06:57:04;13.97;;;3.80;;
14116;SDS011;7137;51.436;6.544;2023-03-26T07:00:06;12.47;;;3.30;;
14116;SDS011;7137;51.436;6.544;2023-03-26T07:03:09;13.20;;;3.40;;
14116;SDS011;7137;51.436;6.544;2023-03-26T07:06:12;11.23;;;3.43;;
14116;SDS011;7137;51.436;6.544;2023-03-26T07:09:14;11.53;;;3.50;;
14116;SDS011;7137;51.436;6.544;2023-03-26T07:12:15;11.53;;;3.77;;
14116;SDS011;7137;51.436;6.544;2023-03-26T07:15:17;10.73;;;3.63;;
14116;SDS011;7137;51.436;6.544;2023-03-26T07:18:19;12.73;;;3.77;;
14116;SDS011;7137;51.436;6.544;2023-03-26T07:21:22;13.50;;;4.07;;
14116;SDS011;7137;51.436;6.544;2023-03-26T07:24:24;14.13;;;3.97;;
14116;SDS011;7137;51.436;6.544;2023-03-26T07:27:31;11.83;;;3.70;;
14116;SDS011;7137;51.436;6.544;2023-03-26T07:30:41;13.10;;;3.77;;
14116;SDS011;7137;51.436;6.544;2023-03-26T07:33:51;15.77;;;4.00;;
14116;SDS011;7137;51.436;6.544;2023-03-26T07:37:03;13.50;;;3.93;;
14116;SDS011;7137;51.436;6.544;2023-03-26T07:40:16;13.57;;;3.97;;
14116;SDS011;7137;51.436;6.544;2023-03-26T07:43:30;12.20;;;3.87;;
14116;SDS011;7137;51.436;6.544;2023-03-26T07:46:41;14.27;;;4.30;;
14116;SDS011;7137;51.436;6.544;2023-03-26T07:49:43;15.43;;;4.30;;
14116;SDS011;7137;51.436;6.544;2023-03-26T07:52:46;12.30;;;4.20;;
14116;SDS011;7137;51.436;6.544;2023-03-26T07:55:49;13.00;;;4.20;;
14116;SDS011;7137;51.436;6.544;2023-03-26T07:58:58;11.90;;;4.50;;
14116;SDS011;7137;51.436;6.544;2023-03-26T08:06:00;13.27;;;3.80;;
14116;SDS011;7137;51.436;6.544;2023-03-26T08:09:11;10.80;;;4.23;;
14116;SDS011;7137;51.436;6.544;2023-03-26T08:12:17;14.63;;;4.60;;
14116;SDS011;7137;51.436;6.544;2023-03-26T08:15:27;18.20;;;4.73;;
14116;SDS011;7137;51.436;6.544;2023-03-26T08:18:38;12.07;;;4.33;;
14116;SDS011;7137;51.436;6.544;2023-03-26T08:21:46;12.80;;;4.33;;
14116;SDS011;7137;51.436;6.544;2023-03-26T08:24:58;13.87;;;4.63;;
14116;SDS011;7137;51.436;6.544;2023-03-26T08:31:38;12.67;;;4.10;;
14116;SDS011;7137;51.436;6.544;2023-03-26T08:34:41;14.17;;;4.40;;
14116;SDS011;7137;51.436;6.544;2023-03-26T08:37:42;11.13;;;4.10;;
14116;SDS011;7137;51.436;6.544;2023-03-26T08:48:26;11.30;;;4.23;;
14116;SDS011;7137;51.436;6.544;2023-03-26T08:59:09;11.97;;;4.07;;
14116;SDS011;7137;51.436;6.544;2023-03-26T09:02:46;11.33;;;3.87;;
14116;SDS011;7137;51.436;6.544;2023-03-26T09:06:31;10.00;;;3.60;;
14116;SDS011;7137;51.436;6.544;2023-03-26T09:13:35;10.07;;;3.50;;
14116;SDS011;7137;51.436;6.544;2023-03-26T09:17:12;11.40;;;4.20;;
14116;SDS011;7137;51.436;6.544;2023-03-26T09:20:37;12.00;;;4.10;;
14116;SDS011;7137;51.436;6.544;2023-03-26T09:23:58;9.90;;;4.10;;
14116;SDS011;7137;51.436;6.544;2023-03-26T09:27:37;10.53;;;4.13;;
14116;SDS011;7137;51.436;6.544;2023-03-26T09:34:27;10.53;;;5.20;;
14116;SDS011;7137;51.436;6.544;2023-03-26T09:37:34;10.87;;;4.97;;
14116;SDS011;7137;51.436;6.544;2023-03-26T09:40:57;8.87;;;4.40;;
14116;SDS011;7137;51.436;6.544;2023-03-26T09:44:11;12.77;;;4.60;;
14116;SDS011;7137;51.436;6.544;2023-03-26T09:47:52;10.47;;;4.37;;
14116;SDS011;7137;51.436;6.544;2023-03-26T09:51:25;9.87;;;4.43;;
14116;SDS011;7137;51.436;6.544;2023-03-26T09:54:43;8.50;;;4.03;;
14116;SDS011;7137;51.436;6.544;2023-03-26T09:58:14;10.10;;;3.70;;
14116;SDS011;7137;51.436;6.544;2023-03-26T10:01:43;9.40;;;4.17;;
14116;SDS011;7137;51.436;6.544;2023-03-26T10:08:38;8.33;;;3.60;;
14116;SDS011;7137;51.436;6.544;2023-03-26T10:12:04;7.90;;;3.27;;
14116;SDS011;7137;51.436;6.544;2023-03-26T10:15:17;6.50;;;2.70;;
14116;SDS011;7137;51.436;6.544;2023-03-26T10:18:32;9.97;;;3.70;;
14116;SDS011;7137;51.436;6.544;2023-03-26T10:21:46;10.87;;;4.00;;
14116;SDS011;7137;51.436;6.544;2023-03-26T10:28:55;6.43;;;2.03;;
14116;SDS011;7137;51.436;6.544;2023-03-26T10:32:16;5.33;;;1.47;;
14116;SDS011;7137;51.436;6.544;2023-03-26T10:35:35;4.47;;;1.40;;
14116;SDS011;7137;51.436;6.544;2023-03-26T10:39:00;3.93;;;1.40;;
14116;SDS011;7137;51.436;6.544;2023-03-26T10:42:19;3.93;;;1.50;;
14116;SDS011;7137;51.436;6.544;2023-03-26T10:45:42;3.07;;;1.10;;
14116;SDS011;7137;51.436;6.544;2023-03-26T10:48:58;5.40;;;1.90;;
14116;SDS011;7137;51.436;6.544;2023-03-26T10:52:20;5.20;;;1.90;;
14116;SDS011;7137;51.436;6.544;2023-03-26T10:55:25;4.93;;;1.70;;
14116;SDS011;7137;51.436;6.544;2023-03-26T10:58:33;2.97;;;1.10;;
14116;SDS011;7137;51.436;6.544;2023-03-26T11:01:39;4.40;;;0.90;;
14116;SDS011;7137;51.436;6.544;2023-03-26T11:04:48;2.43;;;1.17;;
14116;SDS011;7137;51.436;6.544;2023-03-26T11:07:56;3.37;;;1.20;;
14116;SDS011;7137;51.436;6.544;2023-03-26T11:11:07;2.57;;;1.00;;
14116;SDS011;7137;51.436;6.544;2023-03-26T11:14:19;3.03;;;1.17;;
14116;SDS011;7137;51.436;6.544;2023-03-26T11:17:29;4.40;;;1.70;;
14116;SDS011;7137;51.436;6.544;2023-03-26T11:20:39;5.00;;;2.00;;
14116;SDS011;7137;51.436;6.544;2023-03-26T11:23:48;5.33;;;2.10;;
14116;SDS011;7137;51.436;6.544;2023-03-26T11:27:05;6.33;;;2.30;;
14116;SDS011;7137;51.436;6.544;2023-03-26T11:30:14;7.00;;;2.50;;
14116;SDS011;7137;51.436;6.544;2023-03-26T11:33:30;5.50;;;2.20;;
14116;SDS011;7137;51.436;6.544;2023-03-26T11:36:36;5.87;;;2.30;;
14116;SDS011;7137;51.436;6.544;2023-03-26T11:39:46;5.60;;;2.20;;
14116;SDS011;7137;51.436;6.544;2023-03-26T11:42:50;4.57;;;1.87;;
14116;SDS011;7137;51.436;6.544;2023-03-26T11:45:56;3.43;;;1.17;;
14116;SDS011;7137;51.436;6.544;2023-03-26T11:49:02;1.97;;;0.60;;
14116;SDS011;7137;51.436;6.544;2023-03-26T11:52:09;1.50;;;0.70;;
14116;SDS011;7137;51.436;6.544;2023-03-26T11:55:11;1.63;;;0.60;;
14116;SDS011;7137;51.436;6.544;2023-03-26T11:58:20;1.73;;;0.60;;
14116;SDS011;7137;51.436;6.544;2023-03-26T12:01:27;1.87;;;0.70;;
14116;SDS011;7137;51.436;6.544;2023-03-26T12:04:41;2.07;;;0.60;;
14116;SDS011;7137;51.436;6.544;2023-03-26T12:07:45;1.67;;;0.70;;
14116;SDS011;7137;51.436;6.544;2023-03-26T12:10:58;3.00;;;0.87;;
14116;SDS011;7137;51.436;6.544;2023-03-26T12:14:03;1.60;;;0.70;;
14116;SDS011;7137;51.436;6.544;2023-03-26T12:17:06;2.27;;;0.80;;
14116;SDS011;7137;51.436;6.544;2023-03-26T12:20:29;3.00;;;0.70;;
14116;SDS011;7137;51.436;6.544;2023-03-26T12:23:33;1.50;;;0.70;;
14116;SDS011;7137;51.436;6.544;2023-03-26T12:26:38;1.43;;;0.70;;
14116;SDS011;7137;51.436;6.544;2023-03-26T12:29:41;2.47;;;0.70;;
14116;SDS011;7137;51.436;6.544;2023-03-26T12:32:42;4.50;;;1.10;;
14116;SDS011;7137;51.436;6.544;2023-03-26T12:35:45;4.50;;;1.13;;
14116;SDS011;7137;51.436;6.544;2023-03-26T12:38:48;6.20;;;1.70;;
14116;SDS011;7137;51.436;6.544;2023-03-26T12:42:04;10.97;;;2.97;;
14116;SDS011;7137;51.436;6.544;2023-03-26T12:45:27;12.60;;;3.80;;
14116;SDS011;7137;51.436;6.544;2023-03-26T12:48:30;5.13;;;1.60;;
14116;SDS011;7137;51.436;6.544;2023-03-26T12:51:41;3.43;;;1.10;;
14116;SDS011;7137;51.436;6.544;2023-03-26T12:54:49;1.90;;;0.70;;
14116;SDS011;7137;51.436;6.544;2023-03-26T12:58:00;1.57;;;0.50;;
14116;SDS011;7137;51.436;6.544;2023-03-26T13:01:14;2.47;;;1.10;;
14116;SDS011;7137;51.436;6.544;2023-03-26T13:04:36;2.93;;;1.30;;
14116;SDS011;7137;51.436;6.544;2023-03-26T13:08:04;2.57;;;1.20;;
14116;SDS011;7137;51.436;6.544;2023-03-26T13:11:17;2.90;;;1.47;;
14116;SDS011;7137;51.436;6.544;2023-03-26T13:18:05;2.03;;;1.00;;
14116;SDS011;7137;51.436;6.544;2023-03-26T13:21:18;3.63;;;1.60;;
14116;SDS011;7137;51.436;6.544;2023-03-26T13:24:36;6.33;;;2.77;;
14116;SDS011;7137;51.436;6.544;2023-03-26T13:27:47;5.33;;;2.70;;
14116;SDS011;7137;51.436;6.544;2023-03-26T13:30:56;6.57;;;2.97;;
14116;SDS011;7137;51.436;6.544;2023-03-26T13:34:08;6.37;;;3.00;;
14116;SDS011;7137;51.436;6.544;2023-03-26T13:37:19;6.30;;;3.20;;
14116;SDS011;7137;51.436;6.544;2023-03-26T13:40:32;10.17;;;6.67;;
14116;SDS011;7137;51.436;6.544;2023-03-26T13:43:45;10.47;;;7.10;;
14116;SDS011;7137;51.436;6.544;2023-03-26T13:46:54;8.83;;;6.60;;
14116;SDS011;7137;51.436;6.544;2023-03-26T13:50:02;6.63;;;4.80;;
14116;SDS011;7137;51.436;6.544;2023-03-26T13:53:10;4.00;;;1.70;;
14116;SDS011;7137;51.436;6.544;2023-03-26T13:56:18;3.53;;;1.80;;
14116;SDS011;7137;51.436;6.544;2023-03-26T13:59:28;2.87;;;1.40;;
14116;SDS011;7137;51.436;6.544;2023-03-26T14:02:37;2.50;;;1.10;;
14116;SDS011;7137;51.436;6.544;2023-03-26T14:05:41;2.57;;;1.20;;
14116;SDS011;7137;51.436;6.544;2023-03-26T14:08:48;3.90;;;1.40;;
14116;SDS011;7137;51.436;6.544;2023-03-26T14:11:59;3.97;;;1.30;;
14116;SDS011;7137;51.436;6.544;2023-03-26T14:15:16;3.90;;;1.40;;
14116;SDS011;7137;51.436;6.544;2023-03-26T14:18:26;1.60;;;1.00;;
14116;SDS011;7137;51.436;6.544;2023-03-26T14:21:40;2.50;;;0.93;;
14116;SDS011;7137;51.436;6.544;2023-03-26T14:25:00;2.40;;;1.10;;
14116;SDS011;7137;51.436;6.544;2023-03-26T14:28:26;2.73;;;1.40;;
14116;SDS011;7137;51.436;6.544;2023-03-26T14:31:56;2.83;;;1.70;;
14116;SDS011;7137;51.436;6.544;2023-03-26T14:42:23;5.90;;;2.67;;
14116;SDS011;7137;51.436;6.544;2023-03-26T14:49:07;3.83;;;2.20;;
14116;SDS011;7137;51.436;6.544;2023-03-26T14:52:19;4.07;;;2.00;;
14116;SDS011;7137;51.436;6.544;2023-03-26T14:59:31;2.90;;;1.50;;
14116;SDS011;7137;51.436;6.544;2023-03-26T15:13:54;4.60;;;2.57;;
14116;SDS011;7137;51.436;6.544;2023-03-26T15:35:31;4.87;;;2.83;;
14116;SDS011;7137;51.436;6.544;2023-03-26T15:39:16;8.07;;;4.33;;
14116;SDS011;7137;51.436;6.544;2023-03-26T15:42:46;6.23;;;4.37;;
14116;SDS011;7137;51.436;6.544;2023-03-26T15:49:28;13.90;;;6.63;;
14116;SDS011;7137;51.436;6.544;2023-03-26T15:52:41;19.40;;;7.60;;
14116;SDS011;7137;51.436;6.544;2023-03-26T15:59:30;16.67;;;7.13;;
14116;SDS011;7137;51.436;6.544;2023-03-26T16:02:42;19.50;;;8.03;;
14116;SDS011;7137;51.436;6.544;2023-03-26T16:05:56;16.70;;;7.70;;
14116;SDS011;7137;51.436;6.544;2023-03-26T16:12:45;23.30;;;7.63;;
14116;SDS011;7137;51.436;6.544;2023-03-26T16:15:54;18.70;;;7.53;;
14116;SDS011;7137;51.436;6.544;2023-03-26T16:18:58;16.27;;;6.77;;
14116;SDS011;7137;51.436;6.544;2023-03-26T16:22:43;14.13;;;7.00;;
14116;SDS011;7137;51.436;6.544;2023-03-26T16:25:59;19.77;;;7.80;;
14116;SDS011;7137;51.436;6.544;2023-03-26T16:29:16;16.77;;;7.83;;
14116;SDS011;7137;51.436;6.544;2023-03-26T16:32:21;19.27;;;7.67;;
14116;SDS011;7137;51.436;6.544;2023-03-26T16:35:36;16.90;;;8.93;;
14116;SDS011;7137;51.436;6.544;2023-03-26T16:38:48;18.13;;;9.13;;
14116;SDS011;7137;51.436;6.544;2023-03-26T16:41:59;18.73;;;7.80;;
14116;SDS011;7137;51.436;6.544;2023-03-26T16:45:07;15.77;;;7.13;;
14116;SDS011;7137;51.436;6.544;2023-03-26T16:48:20;18.33;;;7.30;;
14116;SDS011;7137;51.436;6.544;2023-03-26T16:51:32;13.83;;;6.90;;
14116;SDS011;7137;51.436;6.544;2023-03-26T16:54:52;17.47;;;7.40;;
14116;SDS011;7137;51.436;6.544;2023-03-26T16:58:03;17.43;;;8.37;;
14116;SDS011;7137;51.436;6.544;2023-03-26T17:01:10;11.33;;;3.80;;
14116;SDS011;7137;51.436;6.544;2023-03-26T17:04:26;10.90;;;3.53;;
14116;SDS011;7137;51.436;6.544;2023-03-26T17:07:31;9.30;;;3.10;;
14116;SDS011;7137;51.436;6.544;2023-03-26T17:10:43;12.27;;;3.00;;
14116;SDS011;7137;51.436;6.544;2023-03-26T17:13:58;10.00;;;3.00;;
14116;SDS011;7137;51.436;6.544;2023-03-26T17:17:17;10.70;;;2.70;;
14116;SDS011;7137;51.436;6.544;2023-03-26T17:20:28;12.87;;;2.97;;
14116;SDS011;7137;51.436;6.544;2023-03-26T17:23:39;8.50;;;2.53;;
14116;SDS011;7137;51.436;6.544;2023-03-26T17:27:06;11.23;;;2.67;;
14116;SDS011;7137;51.436;6.544;2023-03-26T17:30:29;8.20;;;2.70;;
14116;SDS011;7137;51.436;6.544;2023-03-26T17:33:42;10.87;;;2.77;;
14116;SDS011;7137;51.436;6.544;2023-03-26T17:36:44;14.50;;;2.70;;
14116;SDS011;7137;51.436;6.544;2023-03-26T17:43:41;13.10;;;2.60;;
14116;SDS011;7137;51.436;6.544;2023-03-26T17:46:44;8.93;;;2.60;;
14116;SDS011;7137;51.436;6.544;2023-03-26T17:49:46;10.07;;;2.53;;
14116;SDS011;7137;51.436;6.544;2023-03-26T17:52:53;10.60;;;2.57;;
14116;SDS011;7137;51.436;6.544;2023-03-26T17:55:56;10.27;;;2.30;;
14116;SDS011;7137;51.436;6.544;2023-03-26T17:59:04;12.47;;;3.07;;
14116;SDS011;7137;51.436;6.544;2023-03-26T18:02:11;12.23;;;2.50;;
14116;SDS011;7137;51.436;6.544;2023-03-26T18:05:15;12.83;;;2.40;;
14116;SDS011;7137;51.436;6.544;2023-03-26T18:08:26;13.43;;;2.80;;
14116;SDS011;7137;51.436;6.544;2023-03-26T18:11:46;8.97;;;2.40;;
14116;SDS011;7137;51.436;6.544;2023-03-26T18:15:12;11.40;;;2.60;;
14116;SDS011;7137;51.436;6.544;2023-03-26T18:18:32;11.67;;;2.37;;
14116;SDS011;7137;51.436;6.544;2023-03-26T18:21:37;9.47;;;2.20;;
14116;SDS011;7137;51.436;6.544;2023-03-26T18:24:40;12.07;;;2.40;;
14116;SDS011;7137;51.436;6.544;2023-03-26T18:27:42;8.77;;;2.30;;
14116;SDS011;7137;51.436;6.544;2023-03-26T18:30:46;12.50;;;2.40;;
14116;SDS011;7137;51.436;6.544;2023-03-26T18:33:49;16.27;;;2.67;;
14116;SDS011;7137;51.436;6.544;2023-03-26T18:36:59;13.37;;;2.40;;
14116;SDS011;7137;51.436;6.544;2023-03-26T18:40:14;10.20;;;2.40;;
14116;SDS011;7137;51.436;6.544;2023-03-26T18:43:19;9.13;;;2.27;;
14116;SDS011;7137;51.436;6.544;2023-03-26T18:46:23;9.30;;;2.23;;
14116;SDS011;7137;51.436;6.544;2023-03-26T18:49:26;11.03;;;2.30;;
14116;SDS011;7137;51.436;6.544;2023-03-26T18:52:28;11.87;;;2.20;;
14116;SDS011;7137;51.436;6.544;2023-03-26T18:55:32;12.03;;;2.33;;
14116;SDS011;7137;51.436;6.544;2023-03-26T18:58:38;10.50;;;1.60;;
14116;SDS011;7137;51.436;6.544;2023-03-26T19:01:42;11.40;;;2.20;;
14116;SDS011;7137;51.436;6.544;2023-03-26T19:04:44;10.53;;;2.30;;
14116;SDS011;7137;51.436;6.544;2023-03-26T19:07:48;10.13;;;2.20;;
14116;SDS011;7137;51.436;6.544;2023-03-26T19:10:51;10.27;;;2.00;;
14116;SDS011;7137;51.436;6.544;2023-03-26T19:13:58;10.10;;;2.33;;
14116;SDS011;7137;51.436;6.544;2023-03-26T19:17:04;10.50;;;1.80;;
14116;SDS011;7137;51.436;6.544;2023-03-26T19:20:07;9.77;;;2.30;;
14116;SDS011;7137;51.436;6.544;2023-03-26T19:23:17;9.83;;;2.10;;
14116;SDS011;7137;51.436;6.544;2023-03-26T19:26:20;10.37;;;2.23;;
14116;SDS011;7137;51.436;6.544;2023-03-26T19:29:23;12.57;;;2.17;;
14116;SDS011;7137;51.436;6.544;2023-03-26T19:32:29;8.87;;;1.80;;
14116;SDS011;7137;51.436;6.544;2023-03-26T19:35:37;9.87;;;2.03;;
14116;SDS011;7137;51.436;6.544;2023-03-26T19:38:41;12.30;;;2.10;;
14116;SDS011;7137;51.436;6.544;2023-03-26T19:41:44;11.83;;;2.17;;
14116;SDS011;7137;51.436;6.544;2023-03-26T19:44:51;8.97;;;1.73;;
14116;SDS011;7137;51.436;6.544;2023-03-26T19:47:55;11.30;;;2.17;;
14116;SDS011;7137;51.436;6.544;2023-03-26T19:50:59;9.30;;;2.17;;
14116;SDS011;7137;51.436;6.544;2023-03-26T19:54:10;8.70;;;1.93;;
14116;SDS011;7137;51.436;6.544;2023-03-26T19:57:14;9.10;;;2.00;;
14116;SDS011;7137;51.436;6.544;2023-03-26T20:00:16;10.23;;;1.90;;
14116;SDS011;7137;51.436;6.544;2023-03-26T20:03:22;7.90;;;1.73;;
14116;SDS011;7137;51.436;6.544;2023-03-26T20:06:26;8.17;;;1.73;;
14116;SDS011;7137;51.436;6.544;2023-03-26T20:09:29;8.60;;;1.70;;
14116;SDS011;7137;51.436;6.544;2023-03-26T20:12:30;9.37;;;1.73;;
14116;SDS011;7137;51.436;6.544;2023-03-26T20:15:32;10.33;;;2.37;;
14116;SDS011;7137;51.436;6.544;2023-03-26T20:18:38;9.97;;;1.63;;
14116;SDS011;7137;51.436;6.544;2023-03-26T20:21:39;7.87;;;1.90;;
14116;SDS011;7137;51.436;6.544;2023-03-26T20:24:41;10.60;;;1.77;;
14116;SDS011;7137;51.436;6.544;2023-03-26T20:27:43;6.77;;;1.73;;
14116;SDS011;7137;51.436;6.544;2023-03-26T20:30:46;9.50;;;2.03;;
14116;SDS011;7137;51.436;6.544;2023-03-26T20:33:49;9.50;;;2.10;;
14116;SDS011;7137;51.436;6.544;2023-03-26T20:36:52;11.30;;;1.77;;
14116;SDS011;7137;51.436;6.544;2023-03-26T20:39:54;13.73;;;2.07;;
14116;SDS011;7137;51.436;6.544;2023-03-26T20:42:56;9.97;;;1.90;;
14116;SDS011;7137;51.436;6.544;2023-03-26T20:45:58;8.27;;;1.87;;
14116;SDS011;7137;51.436;6.544;2023-03-26T20:49:02;10.97;;;1.90;;